Time;durP1;ratioP1;P1;durP2;ratioP2;P2;SDS_P1;SDS_P2;PMS_P1;PMS_P2;Temp;Humidity;BMP_temperature;BMP_pressure;BME280_temperature;BME280_humidity;BME280_pressure;Samples;Min_cycle;Max_cycle;Signal;HPM_P1;HPM_P2
2023/09/19 00:00:43;;;;;;;4.03;1.15;;;16.60;99.90;;;;;;6180328;23;20001;-76
2023/09/19 00:03:11;;;;;;;3.70;1.73;;;16.60;99.90;;;;;;6154230;23;20450;-76
2023/09/19 00:05:38;;;;;;;6.03;1.50;;;16.50;99.90;;;;;;6181001;23;20001;-76
2023/09/19 00:08:04;;;;;;;8.48;2.03;;;16.50;99.90;;;;;;6180567;23;20029;-76
2023/09/19 00:10:36;;;;;;;6.53;1.65;;;16.50;99.90;;;;;;6181147;23;20001;-76
2023/09/19 00:13:06;;;;;;;7.85;2.33;;;16.50;99.90;;;;;;6180544;23;20005;-77
2023/09/19 00:15:50;;;;;;;5.93;2.00;;;16.50;99.90;;;;;;6180760;23;20494;-76
2023/09/19 00:18:18;;;;;;;7.97;2.20;;;16.50;99.90;;;;;;6182057;23;20427;-76
2023/09/19 00:20:47;;;;;;;8.65;2.05;;;16.50;99.90;;;;;;6182902;23;20005;-76
2023/09/19 00:23:13;;;;;;;10.50;2.05;;;16.50;99.90;;;;;;6156050;23;20082;-76
2023/09/19 00:25:40;;;;;;;11.20;2.30;;;16.50;99.90;;;;;;6182878;23;20423;-76
2023/09/19 00:28:07;;;;;;;6.75;1.50;;;16.60;99.90;;;;;;6182131;23;20063;-76
2023/09/19 00:30:33;;;;;;;8.63;2.28;;;16.60;99.90;;;;;;6182116;23;20005;-76
2023/09/19 00:33:00;;;;;;;10.05;2.35;;;16.60;99.90;;;;;;6182158;23;20434;-76
2023/09/19 00:35:27;;;;;;;7.13;2.25;;;16.60;99.90;;;;;;6155988;23;20011;-76
2023/09/19 00:37:53;;;;;;;8.15;1.92;;;16.60;99.90;;;;;;6182341;23;20008;-75
2023/09/19 00:40:19;;;;;;;6.03;2.03;;;16.60;99.90;;;;;;6182360;23;20415;-76
2023/09/19 00:42:46;;;;;;;6.47;1.77;;;16.70;99.90;;;;;;6182495;23;20023;-77
2023/09/19 00:45:14;;;;;;;7.70;1.95;;;16.70;99.90;;;;;;6158196;23;20017;-76
2023/09/19 00:47:41;;;;;;;5.85;1.20;;;16.70;99.90;;;;;;6126680;23;20009;-77
2023/09/19 00:50:09;;;;;;;4.55;1.42;;;16.60;99.90;;;;;;6152608;23;20020;-77
2023/09/19 00:52:38;;;;;;;4.90;1.48;;;16.70;99.90;;;;;;6152693;23;20008;-76
2023/09/19 00:55:11;;;;;;;11.63;1.50;;;16.60;99.90;;;;;;6152414;23;20077;-76
2023/09/19 00:57:38;;;;;;;7.47;1.60;;;16.60;99.90;;;;;;6152502;23;20013;-75
2023/09/19 01:00:08;;;;;;;5.38;1.60;;;16.60;99.90;;;;;;6151168;23;20431;-76
2023/09/19 01:02:34;;;;;;;6.47;2.30;;;16.60;99.90;;;;;;6125617;23;20060;-76
2023/09/19 01:05:00;;;;;;;11.82;2.40;;;16.60;99.90;;;;;;6152168;23;19998;-76
2023/09/19 01:07:29;;;;;;;5.20;1.83;;;16.60;99.90;;;;;;6151917;23;20056;-76
2023/09/19 01:09:58;;;;;;;6.43;2.30;;;16.50;99.90;;;;;;6150836;23;20035;-75
2023/09/19 01:12:43;;;;;;;6.20;1.88;;;16.50;99.90;;;;;;6126339;23;20041;-76
2023/09/19 01:15:23;;;;;;;8.88;2.00;;;16.50;99.90;;;;;;6151111;23;19998;-76
2023/09/19 01:18:02;;;;;;;9.68;1.73;;;16.40;99.90;;;;;;6125292;23;20053;-76
2023/09/19 01:20:53;;;;;;;7.30;2.63;;;16.40;99.90;;;;;;6152515;23;20077;-76
2023/09/19 01:23:56;;;;;;;10.32;2.35;;;16.40;99.90;;;;;;6126026;23;20440;-75
2023/09/19 01:26:44;;;;;;;10.38;2.40;;;16.30;99.90;;;;;;6152090;23;20013;-76
2023/09/19 01:29:48;;;;;;;10.13;2.88;;;16.30;99.90;;;;;;6124643;23;20486;-76
2023/09/19 01:32:21;;;;;;;6.22;2.47;;;16.30;99.90;;;;;;6151164;23;20025;-76
2023/09/19 01:34:48;;;;;;;13.75;3.30;;;16.20;99.90;;;;;;6126436;23;20004;-76
2023/09/19 01:37:19;;;;;;;10.60;2.72;;;16.20;99.90;;;;;;6124983;23;20029;-76
2023/09/19 01:39:48;;;;;;;11.02;2.42;;;16.30;99.90;;;;;;6125714;23;20428;-76
2023/09/19 01:42:51;;;;;;;8.13;1.85;;;16.30;99.90;;;;;;6151415;23;19998;-76
2023/09/19 01:45:46;;;;;;;7.57;2.38;;;16.30;99.90;;;;;;6151245;23;20018;-76
2023/09/19 01:48:40;;;;;;;8.85;2.15;;;16.40;99.90;;;;;;6124905;23;20001;-76
2023/09/19 01:51:06;;;;;;;8.63;2.33;;;16.40;99.90;;;;;;6125232;23;20006;-75
2023/09/19 01:53:57;;;;;;;13.13;2.28;;;16.30;99.90;;;;;;6125485;23;20084;-76
2023/09/19 01:56:35;;;;;;;8.18;2.28;;;16.40;99.90;;;;;;6150696;23;20009;-76
2023/09/19 01:59:06;;;;;;;7.80;2.20;;;16.40;99.90;;;;;;6150944;23;20101;-76
2023/09/19 02:01:34;;;;;;;7.05;2.17;;;16.40;99.90;;;;;;6125292;23;20389;-76
2023/09/19 02:04:00;;;;;;;8.85;2.28;;;16.40;99.90;;;;;;6151215;23;19997;-76
2023/09/19 02:06:26;;;;;;;10.82;2.42;;;16.30;99.90;;;;;;6124658;23;20010;-75
2023/09/19 02:08:53;;;;;;;10.13;2.35;;;16.30;99.90;;;;;;6125207;23;20460;-76
2023/09/19 02:11:19;;;;;;;6.75;1.45;;;16.30;99.90;;;;;;6150559;23;20005;-76
2023/09/19 02:13:44;;;;;;;9.48;2.13;;;16.20;99.90;;;;;;6151478;23;20025;-76
2023/09/19 02:16:10;;;;;;;8.48;2.13;;;16.20;99.90;;;;;;6124626;23;20059;-76
2023/09/19 02:18:36;;;;;;;8.13;1.75;;;16.00;99.90;;;;;;6125356;23;20028;-76
2023/09/19 02:21:03;;;;;;;8.35;1.92;;;16.00;99.90;;;;;;6124848;23;20372;-76
2023/09/19 02:23:30;;;;;;;12.02;2.67;;;15.90;99.90;;;;;;6151622;23;20002;-76
2023/09/19 02:26:00;;;;;;;8.43;2.47;;;15.80;99.90;;;;;;6124284;23;20442;-75
2023/09/19 02:28:35;;;;;;;10.13;1.83;;;15.80;99.90;;;;;;6151247;23;20005;-76
2023/09/19 02:31:01;;;;;;;12.27;2.42;;;15.80;99.90;;;;;;6150898;23;20424;-76
2023/09/19 02:33:32;;;;;;;8.98;2.08;;;15.70;99.90;;;;;;6125053;23;20009;-77
2023/09/19 02:35:58;;;;;;;7.15;1.50;;;15.70;99.90;;;;;;6124704;23;20309;-76
2023/09/19 02:38:25;;;;;;;9.73;2.05;;;15.60;99.90;;;;;;6151039;23;20005;-76
2023/09/19 02:40:55;;;;;;;9.98;2.47;;;15.60;99.90;;;;;;6150380;23;20001;-76
2023/09/19 02:43:21;;;;;;;9.50;2.22;;;15.50;99.90;;;;;;6150668;23;20008;-76
2023/09/19 02:45:49;;;;;;;8.02;2.08;;;15.50;99.90;;;;;;6124970;23;20060;-76
2023/09/19 02:48:15;;;;;;;6.97;2.38;;;15.50;99.90;;;;;;6150990;23;20313;-76
2023/09/19 02:50:41;;;;;;;6.30;2.13;;;15.40;99.90;;;;;;6151045;23;20080;-76
2023/09/19 02:53:07;;;;;;;7.43;1.80;;;15.40;99.90;;;;;;6150774;23;20213;-76
2023/09/19 02:55:33;;;;;;;8.48;2.08;;;15.30;99.90;;;;;;6150430;23;20065;-76
2023/09/19 02:58:00;;;;;;;10.55;1.90;;;15.30;99.90;;;;;;6151077;23;20034;-76
2023/09/19 03:00:27;;;;;;;10.00;2.17;;;15.30;99.90;;;;;;6124504;23;20005;-76
2023/09/19 03:02:56;;;;;;;8.70;2.42;;;15.30;99.90;;;;;;6124526;23;20013;-76
2023/09/19 03:05:26;;;;;;;11.85;1.73;;;15.20;99.90;;;;;;6150623;23;20009;-76
2023/09/19 03:07:52;;;;;;;9.23;2.90;;;15.20;99.90;;;;;;6124503;23;20104;-77
2023/09/19 03:10:18;;;;;;;9.75;2.85;;;15.20;99.90;;;;;;6123726;23;20116;-76
2023/09/19 03:12:44;;;;;;;10.30;2.33;;;15.10;99.90;;;;;;6124477;23;20032;-76
2023/09/19 03:15:10;;;;;;;9.40;2.10;;;15.10;99.90;;;;;;6150327;23;20001;-77
2023/09/19 03:17:36;;;;;;;10.70;2.17;;;15.00;99.90;;;;;;6150716;23;20012;-77
2023/09/19 03:20:03;;;;;;;9.85;2.38;;;15.00;99.90;;;;;;6124252;23;20105;-76
2023/09/19 03:22:28;;;;;;;8.27;2.08;;;15.00;99.90;;;;;;6150526;23;20009;-76
2023/09/19 03:24:54;;;;;;;7.35;2.97;;;15.00;99.90;;;;;;6149443;23;20001;-76
2023/09/19 03:27:20;;;;;;;4.60;1.55;;;14.90;99.90;;;;;;6150238;23;20010;-76
2023/09/19 03:29:46;;;;;;;7.95;1.73;;;14.90;99.90;;;;;;6124311;23;20088;-76
2023/09/19 03:32:12;;;;;;;6.03;1.90;;;14.90;99.90;;;;;;6150018;23;20032;-76
2023/09/19 03:34:41;;;;;;;7.45;1.20;;;14.90;99.90;;;;;;6150641;23;20416;-76
2023/09/19 03:37:07;;;;;;;8.55;1.88;;;14.80;99.90;;;;;;6124060;23;20031;-76
2023/09/19 03:39:33;;;;;;;8.07;1.88;;;14.80;99.90;;;;;;6123779;23;20077;-76
2023/09/19 03:41:58;;;;;;;8.02;2.05;;;14.80;99.90;;;;;;6150653;23;20068;-76
2023/09/19 03:44:24;;;;;;;9.95;2.22;;;14.70;99.90;;;;;;6150143;23;20018;-76
2023/09/19 03:46:49;;;;;;;6.65;2.45;;;14.70;99.90;;;;;;6124493;23;20006;-76
2023/09/19 03:49:15;;;;;;;7.15;2.17;;;14.70;99.90;;;;;;6123768;23;20372;-76
2023/09/19 03:51:41;;;;;;;7.72;2.20;;;14.70;99.90;;;;;;6124743;23;20009;-75
2023/09/19 03:54:07;;;;;;;10.00;2.45;;;14.60;99.90;;;;;;6151583;23;20347;-76
2023/09/19 03:56:33;;;;;;;7.00;1.67;;;14.60;99.90;;;;;;6152447;23;20084;-75
2023/09/19 03:58:59;;;;;;;7.53;1.85;;;14.60;99.90;;;;;;6152324;23;20454;-76
2023/09/19 04:01:27;;;;;;;8.15;1.52;;;14.60;99.90;;;;;;6152217;23;20036;-75
2023/09/19 04:03:53;;;;;;;6.97;2.10;;;14.60;99.90;;;;;;6152244;23;20017;-76
2023/09/19 04:06:19;;;;;;;8.55;2.42;;;14.50;99.90;;;;;;6152154;23;20056;-76
2023/09/19 04:08:46;;;;;;;8.60;2.42;;;14.60;99.90;;;;;;6151879;23;20468;-76
2023/09/19 04:11:11;;;;;;;10.60;2.67;;;14.50;99.90;;;;;;6125521;23;20017;-76
2023/09/19 04:13:37;;;;;;;8.45;2.15;;;14.50;99.90;;;;;;6152278;23;20002;-75
2023/09/19 04:16:10;;;;;;;8.95;2.13;;;14.50;99.90;;;;;;6125913;23;20010;-76
2023/09/19 04:18:38;;;;;;;6.78;1.65;;;14.50;99.90;;;;;;6152540;23;20059;-76
2023/09/19 04:21:05;;;;;;;8.45;1.90;;;14.50;99.90;;;;;;6152020;23;19998;-76
2023/09/19 04:23:31;;;;;;;6.72;2.00;;;14.40;99.90;;;;;;6151717;23;20005;-76
2023/09/19 04:25:57;;;;;;;10.63;1.73;;;14.40;99.90;;;;;;6151985;23;20377;-75
2023/09/19 04:28:24;;;;;;;7.50;1.63;;;14.40;99.90;;;;;;6152058;23;20009;-75
2023/09/19 04:30:49;;;;;;;14.07;2.40;;;14.40;99.90;;;;;;6152284;23;20025;-76
2023/09/19 04:33:15;;;;;;;8.85;1.50;;;14.40;99.90;;;;;;6151863;23;20119;-76
2023/09/19 04:35:42;;;;;;;7.78;1.60;;;14.40;99.90;;;;;;6125795;23;20009;-76
2023/09/19 04:38:08;;;;;;;5.20;1.42;;;14.40;99.90;;;;;;6151835;23;19998;-76
2023/09/19 04:40:33;;;;;;;11.52;1.75;;;14.40;99.90;;;;;;6152323;23;20002;-76
2023/09/19 04:43:00;;;;;;;9.30;1.80;;;14.40;99.90;;;;;;6152008;23;20005;-75
2023/09/19 04:45:27;;;;;;;7.25;2.13;;;14.40;99.90;;;;;;6151573;23;20044;-75
2023/09/19 04:47:53;;;;;;;10.20;2.03;;;14.40;99.90;;;;;;6152215;23;20005;-75
2023/09/19 04:50:21;;;;;;;10.15;2.13;;;14.40;99.90;;;;;;6151216;23;20114;-77
2023/09/19 04:52:50;;;;;;;9.52;2.42;;;14.40;99.90;;;;;;6125851;23;20005;-75
2023/09/19 04:55:17;;;;;;;6.63;2.47;;;14.40;99.90;;;;;;6151315;23;20013;-75
2023/09/19 04:57:47;;;;;;;7.65;1.75;;;14.30;99.90;;;;;;6125754;23;20051;-75
2023/09/19 05:00:14;;;;;;;8.98;2.45;;;14.40;99.90;;;;;;6125030;23;20006;-76
2023/09/19 05:02:42;;;;;;;8.15;2.30;;;14.40;99.90;;;;;;6151871;23;20005;-76
2023/09/19 05:05:08;;;;;;;9.40;1.98;;;14.40;99.90;;;;;;6151311;23;20013;-76
2023/09/19 05:07:34;;;;;;;7.88;1.45;;;14.40;99.90;;;;;;6151656;23;20008;-75
2023/09/19 05:10:00;;;;;;;10.98;2.00;;;14.40;99.90;;;;;;6151836;23;20323;-76
2023/09/19 05:12:27;;;;;;;9.70;2.67;;;14.40;99.90;;;;;;6151697;23;20002;-76
2023/09/19 05:14:52;;;;;;;10.45;1.90;;;14.40;99.90;;;;;;6125481;23;20422;-76
2023/09/19 05:17:19;;;;;;;7.85;2.20;;;14.40;99.90;;;;;;6151234;23;20001;-75
2023/09/19 05:19:45;;;;;;;8.15;2.47;;;14.40;99.90;;;;;;6125223;23;20006;-77
2023/09/19 05:22:12;;;;;;;6.05;1.58;;;14.40;99.90;;;;;;6151386;23;20428;-75
2023/09/19 05:24:38;;;;;;;8.45;1.73;;;14.50;99.90;;;;;;6151797;23;20069;-76
2023/09/19 05:27:07;;;;;;;6.35;1.98;;;14.50;99.90;;;;;;6151557;23;20001;-76
2023/09/19 05:29:33;;;;;;;13.00;1.73;;;14.50;99.90;;;;;;6125130;23;20350;-76
2023/09/19 05:31:59;;;;;;;9.90;2.20;;;14.50;99.90;;;;;;6125339;23;20033;-76
2023/09/19 05:34:28;;;;;;;10.80;2.13;;;14.50;99.90;;;;;;6124258;23;20375;-76
2023/09/19 05:36:54;;;;;;;8.98;2.20;;;14.50;99.90;;;;;;6125387;23;20109;-75
2023/09/19 05:39:20;;;;;;;8.77;2.28;;;14.50;99.90;;;;;;6125004;23;20002;-76
2023/09/19 05:41:47;;;;;;;7.88;1.83;;;14.60;99.90;;;;;;6151722;23;20055;-75
2023/09/19 05:44:14;;;;;;;8.40;2.20;;;14.60;99.90;;;;;;6150834;23;20014;-76
2023/09/19 05:46:39;;;;;;;3.83;1.15;;;14.60;99.90;;;;;;6151654;23;20420;-76
2023/09/19 05:49:05;;;;;;;9.98;1.48;;;14.60;99.90;;;;;;6150889;23;20060;-75
2023/09/19 05:51:31;;;;;;;9.27;1.60;;;14.60;99.90;;;;;;6151660;23;20389;-76
2023/09/19 05:53:57;;;;;;;8.18;2.67;;;14.60;99.90;;;;;;6151334;23;20056;-75
2023/09/19 05:56:23;;;;;;;4.57;1.45;;;14.60;99.90;;;;;;6151452;23;20010;-76
2023/09/19 05:58:49;;;;;;;9.35;2.03;;;14.70;99.90;;;;;;6151360;23;20006;-74
2023/09/19 06:01:15;;;;;;;8.82;1.52;;;14.70;99.90;;;;;;6150994;23;20044;-76
2023/09/19 06:03:40;;;;;;;9.05;2.22;;;14.70;99.90;;;;;;6124923;23;20006;-76
2023/09/19 06:06:06;;;;;;;10.23;1.58;;;14.70;99.90;;;;;;6151028;23;20001;-75
2023/09/19 06:08:33;;;;;;;8.88;1.63;;;14.70;99.90;;;;;;6124825;23;20021;-76
2023/09/19 06:10:59;;;;;;;8.75;2.10;;;14.80;99.90;;;;;;6151253;23;20029;-72
2023/09/19 06:13:26;;;;;;;10.27;2.08;;;14.80;99.90;;;;;;6151149;23;20001;-72
2023/09/19 06:15:52;;;;;;;7.35;1.85;;;14.80;99.90;;;;;;6150886;23;20001;-72
2023/09/19 06:18:19;;;;;;;13.23;2.53;;;14.80;99.90;;;;;;6149726;23;20002;-72
2023/09/19 06:20:50;;;;;;;8.75;2.63;;;14.80;99.90;;;;;;6151148;23;20008;-73
2023/09/19 06:23:17;;;;;;;9.60;2.22;;;14.90;99.90;;;;;;6150581;23;20001;-72
2023/09/19 06:25:43;;;;;;;8.52;1.55;;;14.90;99.90;;;;;;6151181;23;20321;-72
2023/09/19 06:28:12;;;;;;;8.68;2.10;;;14.90;99.90;;;;;;6124639;23;20411;-72
2023/09/19 06:30:40;;;;;;;9.77;2.28;;;15.00;99.90;;;;;;6151222;23;20001;-72
2023/09/19 06:33:06;;;;;;;8.00;2.05;;;15.00;99.90;;;;;;6123885;23;20080;-72
2023/09/19 06:35:34;;;;;;;11.40;2.78;;;15.00;99.90;;;;;;6150916;23;20001;-72
2023/09/19 06:38:03;;;;;;;7.03;2.50;;;15.10;99.90;;;;;;6150672;23;20001;-72
2023/09/19 06:40:30;;;;;;;8.02;1.77;;;15.10;99.90;;;;;;6150941;23;20005;-72
2023/09/19 06:42:57;;;;;;;10.52;1.98;;;15.20;99.90;;;;;;6151096;23;20062;-73
2023/09/19 06:45:22;;;;;;;9.65;1.98;;;15.20;99.90;;;;;;6150429;23;20029;-72
2023/09/19 06:47:51;;;;;;;7.80;1.60;;;15.20;99.90;;;;;;6150394;23;20033;-72
2023/09/19 06:50:19;;;;;;;10.60;1.88;;;15.30;99.90;;;;;;6150273;23;20002;-72
2023/09/19 06:52:49;;;;;;;8.23;2.42;;;15.30;99.90;;;;;;6150891;23;20001;-72
2023/09/19 06:55:16;;;;;;;8.98;1.83;;;15.30;99.90;;;;;;6150532;23;20033;-73
2023/09/19 06:57:43;;;;;;;8.88;2.00;;;15.40;99.90;;;;;;6150911;23;20556;-73
2023/09/19 07:00:15;;;;;;;8.00;2.00;;;15.40;99.90;;;;;;6150559;23;20001;-73
2023/09/19 07:02:41;;;;;;;8.35;2.78;;;15.50;99.90;;;;;;6150048;23;20024;-73
2023/09/19 07:05:07;;;;;;;12.82;2.28;;;15.50;99.90;;;;;;6143263;23;20001;-72
2023/09/19 07:07:34;;;;;;;12.38;1.92;;;15.60;99.90;;;;;;6145937;23;20076;-72
2023/09/19 07:10:01;;;;;;;13.20;2.65;;;15.60;99.90;;;;;;6147374;23;20001;-72
2023/09/19 07:12:26;;;;;;;8.95;1.88;;;15.60;99.90;;;;;;6149167;23;20474;-73
2023/09/19 07:14:52;;;;;;;10.90;2.45;;;15.70;99.90;;;;;;6149222;23;20005;-73
2023/09/19 07:17:18;;;;;;;8.27;1.67;;;15.70;99.90;;;;;;6148245;23;20335;-73
2023/09/19 07:19:45;;;;;;;9.27;2.25;;;15.70;99.90;;;;;;6150178;23;20145;-72
2023/09/19 07:22:10;;;;;;;10.45;2.03;;;15.80;99.90;;;;;;6149151;23;20028;-73
2023/09/19 07:24:37;;;;;;;12.90;2.28;;;15.80;99.90;;;;;;6150266;23;20416;-72
2023/09/19 07:27:05;;;;;;;10.30;2.22;;;15.80;99.90;;;;;;6149759;23;20486;-72
2023/09/19 07:29:30;;;;;;;10.32;2.28;;;15.90;99.90;;;;;;6148485;23;20060;-72
2023/09/19 07:31:56;;;;;;;11.27;2.00;;;16.00;99.90;;;;;;6149474;23;20081;-72
2023/09/19 07:34:22;;;;;;;12.88;2.33;;;16.00;99.90;;;;;;6149839;23;20014;-72
2023/09/19 07:36:48;;;;;;;8.02;1.83;;;16.10;99.90;;;;;;6150270;23;20033;-72
2023/09/19 07:39:14;;;;;;;8.35;1.77;;;16.10;99.90;;;;;;6148641;23;20002;-72
2023/09/19 07:41:39;;;;;;;7.18;1.52;;;16.20;99.90;;;;;;6150803;23;20072;-73
2023/09/19 07:44:05;;;;;;;8.85;2.55;;;16.20;99.90;;;;;;6150166;23;20056;-72
2023/09/19 07:46:31;;;;;;;8.60;2.33;;;16.20;99.90;;;;;;6123924;23;20017;-72
2023/09/19 07:48:57;;;;;;;9.32;2.35;;;16.30;99.90;;;;;;6150675;23;20040;-72
2023/09/19 07:51:23;;;;;;;8.13;2.25;;;16.40;99.90;;;;;;6148712;23;20428;-72
2023/09/19 07:53:48;;;;;;;7.75;1.42;;;16.40;99.90;;;;;;6150549;23;20084;-73
2023/09/19 07:56:14;;;;;;;12.00;2.75;;;16.40;99.90;;;;;;6150007;23;20324;-72
2023/09/19 07:58:43;;;;;;;11.63;1.88;;;16.50;99.90;;;;;;6150028;23;20009;-72
2023/09/19 08:01:10;;;;;;;10.55;2.28;;;16.50;99.90;;;;;;6121939;23;20431;-72
2023/09/19 08:03:43;;;;;;;8.80;2.45;;;16.50;99.90;;;;;;6150509;23;20325;-73
2023/09/19 08:06:09;;;;;;;12.10;2.55;;;16.60;99.90;;;;;;6149420;23;20008;-73
2023/09/19 08:08:37;;;;;;;8.27;1.73;;;16.60;99.90;;;;;;6150044;23;20001;-72
2023/09/19 08:11:11;;;;;;;11.43;3.17;;;16.60;99.90;;;;;;6150149;23;20080;-73
2023/09/19 08:13:37;;;;;;;;;;;16.60;99.90;;;;;;6148920;23;20324;-73
2023/09/19 08:16:03;;;;;;;15.20;2.72;;;16.60;99.90;;;;;;6150190;23;19915;-73
2023/09/19 08:18:30;;;;;;;9.75;2.08;;;16.60;99.90;;;;;;6150261;23;20029;-73
2023/09/19 08:20:58;;;;;;;12.40;2.55;;;16.60;99.90;;;;;;6149682;23;20001;-73
2023/09/19 08:23:24;;;;;;;14.10;3.30;;;16.70;99.90;;;;;;6149942;23;20056;-73
2023/09/19 08:25:50;;;;;;;12.70;2.47;;;16.70;99.90;;;;;;6150336;23;20005;-72
2023/09/19 08:28:22;;;;;;;9.30;2.05;;;16.70;99.90;;;;;;6148600;23;20104;-73
2023/09/19 08:30:47;;;;;;;11.43;1.98;;;16.80;99.90;;;;;;6150189;23;20092;-73
2023/09/19 08:33:15;;;;;;;11.23;2.88;;;16.90;99.90;;;;;;6150030;23;20364;-73
2023/09/19 08:35:42;;;;;;;12.88;2.85;;;17.00;99.90;;;;;;6150066;23;20025;-73
2023/09/19 08:38:08;;;;;;;11.68;2.40;;;17.10;99.90;;;;;;6150642;23;19998;-72
2023/09/19 08:40:39;;;;;;;7.38;2.55;;;17.20;99.90;;;;;;6151533;23;20439;-73
2023/09/19 08:43:07;;;;;;;8.80;2.15;;;17.20;99.90;;;;;;6124873;23;20012;-73
2023/09/19 08:45:33;;;;;;;18.60;2.55;;;17.30;99.90;;;;;;6151249;23;20099;-73
2023/09/19 08:48:28;;;;;;;12.07;3.08;;;17.30;99.90;;;;;;6124583;23;20010;-72
2023/09/19 08:51:05;;;;;;;12.63;2.92;;;17.40;99.90;;;;;;6151087;23;19997;-73
2023/09/19 08:53:46;;;;;;;12.93;3.10;;;17.50;99.90;;;;;;6151763;23;20042;-73
2023/09/19 08:56:13;;;;;;;10.32;3.10;;;17.60;99.90;;;;;;6151416;23;20006;-73
2023/09/19 08:58:51;;;;;;;10.98;2.38;;;17.60;99.90;;;;;;6150330;23;20442;-73
2023/09/19 09:01:24;;;;;;;13.77;2.85;;;17.60;99.90;;;;;;6150865;23;19998;-72
2023/09/19 09:03:53;;;;;;;13.77;3.50;;;17.70;99.90;;;;;;6151536;23;20503;-73
2023/09/19 09:06:20;;;;;;;8.13;2.00;;;17.70;99.90;;;;;;6151345;23;20009;-73
2023/09/19 09:08:47;;;;;;;11.55;3.20;;;17.80;99.90;;;;;;6151796;23;20080;-73
2023/09/19 09:11:15;;;;;;;6.65;2.17;;;17.90;99.90;;;;;;6151302;23;20088;-72
2023/09/19 09:13:43;;;;;;;9.75;2.50;;;17.90;99.90;;;;;;6124958;23;20010;-73
2023/09/19 09:16:09;;;;;;;10.50;2.42;;;17.90;99.90;;;;;;6151152;23;20460;-73
2023/09/19 09:18:35;;;;;;;10.90;2.03;;;18.00;99.90;;;;;;6150731;23;20327;-72
2023/09/19 09:21:01;;;;;;;11.10;1.80;;;18.10;99.90;;;;;;6151633;23;19997;-73
2023/09/19 09:23:29;;;;;;;11.85;2.50;;;18.10;99.90;;;;;;6151040;23;20008;-72
2023/09/19 09:26:06;;;;;;;8.55;2.13;;;18.10;99.90;;;;;;6150914;23;20422;-73
2023/09/19 09:28:33;;;;;;;6.40;1.48;;;18.20;99.90;;;;;;6151740;23;20001;-73
2023/09/19 09:31:07;;;;;;;7.30;2.55;;;18.40;99.90;;;;;;6150598;23;20081;-74
2023/09/19 09:33:33;;;;;;;11.25;2.45;;;18.60;99.90;;;;;;6151428;23;20016;-73
2023/09/19 09:36:02;;;;;;;8.93;2.63;;;18.70;99.90;;;;;;6150528;23;20331;-73
2023/09/19 09:38:31;;;;;;;9.05;2.60;;;18.80;99.90;;;;;;6150031;23;19997;-73
2023/09/19 09:43:28;;;;;;;7.05;1.80;;;19.10;99.50;;;;;;6151233;23;20005;-73
2023/09/19 09:52:24;;;;;;;8.32;1.75;;;19.10;98.60;;;;;;6161439;23;20139;-73
2023/09/19 09:55:05;;;;;;;11.43;2.28;;;19.20;98.60;;;;;;6150494;23;20029;-73
2023/09/19 09:57:31;;;;;;;7.40;1.67;;;19.20;98.50;;;;;;6151157;23;20010;-73
2023/09/19 09:59:59;;;;;;;9.90;2.08;;;19.20;98.40;;;;;;6150781;23;20002;-73
2023/09/19 10:02:32;;;;;;;12.32;2.85;;;19.20;98.40;;;;;;6150339;23;20005;-73
2023/09/19 10:05:07;;;;;;;8.20;2.00;;;19.20;98.40;;;;;;6151339;23;20002;-73
2023/09/19 10:07:36;;;;;;;13.20;2.92;;;19.20;98.50;;;;;;6150483;23;20032;-73
2023/09/19 10:12:48;;;;;;;8.82;2.53;;;19.30;98.40;;;;;;6151073;23;20017;-73
2023/09/19 10:15:15;;;;;;;7.68;2.60;;;19.30;98.20;;;;;;6150013;23;20012;-73
2023/09/19 10:17:45;;;;;;;9.48;2.53;;;19.40;97.80;;;;;;6150579;23;20077;-73
2023/09/19 10:20:33;;;;;;;8.50;1.83;;;19.30;97.80;;;;;;6150453;23;19998;-73
2023/09/19 10:23:13;;;;;;;11.18;1.95;;;19.30;97.90;;;;;;6151017;23;19998;-73
2023/09/19 10:25:41;;;;;;;8.57;2.00;;;19.40;97.70;;;;;;6149920;23;20076;-73
2023/09/19 10:28:13;;;;;;;13.70;2.45;;;19.40;97.90;;;;;;6124348;23;19998;-73
2023/09/19 10:30:44;;;;;;;11.25;2.20;;;19.50;97.70;;;;;;6150647;23;20636;-73
2023/09/19 10:33:11;;;;;;;9.35;2.28;;;19.60;97.60;;;;;;6124361;23;20008;-73
2023/09/19 10:35:43;;;;;;;8.52;2.22;;;19.70;97.40;;;;;;6150347;23;20001;-73
2023/09/19 10:38:14;;;;;;;10.75;1.95;;;19.80;97.30;;;;;;6150314;23;19998;-73
2023/09/19 10:40:43;;;;;;;10.15;2.03;;;19.80;97.20;;;;;;6149203;23;20002;-73
2023/09/19 10:43:13;;;;;;;9.30;2.40;;;19.90;97.10;;;;;;6150017;23;20033;-73
2023/09/19 10:45:40;;;;;;;8.27;2.13;;;20.00;96.90;;;;;;6147196;23;20013;-72
2023/09/19 10:48:07;;;;;;;9.63;2.15;;;20.10;96.80;;;;;;6149272;23;20002;-73
2023/09/19 10:50:50;;;;;;;10.80;2.50;;;20.20;96.80;;;;;;6149455;23;20029;-74
2023/09/19 10:53:17;;;;;;;5.95;1.42;;;20.30;96.60;;;;;;6147651;23;20005;-73
2023/09/19 10:55:57;;;;;;;9.23;2.05;;;20.40;96.70;;;;;;6150148;23;20027;-73
2023/09/19 10:58:38;;;;;;;7.82;2.22;;;20.40;96.30;;;;;;6149970;23;20387;-73
2023/09/19 11:01:15;;;;;;;6.18;2.05;;;20.40;96.20;;;;;;6150346;23;20499;-73
2023/09/19 11:03:44;;;;;;;7.82;2.08;;;20.40;96.20;;;;;;6124018;23;20332;-73
2023/09/19 11:06:13;;;;;;;11.10;2.42;;;20.30;96.30;;;;;;6149667;23;20435;-73
2023/09/19 11:11:39;;;;;;;13.68;2.45;;;20.40;96.30;;;;;;6150626;23;20451;-73
2023/09/19 11:14:23;;;;;;;7.90;1.75;;;20.30;96.30;;;;;;6149680;23;20001;-73
2023/09/19 11:17:07;;;;;;;9.73;2.45;;;20.20;96.20;;;;;;6149910;23;20459;-72
2023/09/19 11:22:56;;;;;;;6.80;1.70;;;20.20;96.30;;;;;;6149609;23;20041;-72
2023/09/19 11:25:31;;;;;;;12.77;2.60;;;20.20;96.20;;;;;;6149964;23;20012;-73
2023/09/19 11:28:21;;;;;;;7.15;1.50;;;20.20;96.40;;;;;;6150399;23;20008;-73
2023/09/19 11:30:49;;;;;;;8.98;1.80;;;20.20;96.30;;;;;;6136560;23;20013;-73
2023/09/19 11:33:33;;;;;;;8.98;1.83;;;20.20;96.30;;;;;;6149979;23;20001;-73
2023/09/19 11:36:06;;;;;;;;;;;20.40;96.10;;;;;;6150189;23;20499;-75
2023/09/19 11:38:44;;;;;;;7.30;2.00;;;20.40;96.00;;;;;;6148757;23;19901;-76
2023/09/19 11:41:29;;;;;;;6.18;1.70;;;20.40;96.00;;;;;;6149541;23;20005;-75
2023/09/19 11:44:03;;;;;;;10.70;1.80;;;20.50;95.90;;;;;;6150101;23;20092;-76
2023/09/19 11:46:52;;;;;;;6.60;1.55;;;20.60;95.60;;;;;;6150630;23;20001;-75
2023/09/19 11:49:23;;;;;;;6.90;1.52;;;20.60;95.50;;;;;;6149953;23;20077;-77
2023/09/19 11:51:54;;;;;;;10.82;1.90;;;20.50;95.70;;;;;;6149964;23;20002;-76
2023/09/19 11:54:21;;;;;;;4.90;1.40;;;20.50;95.40;;;;;;6150008;23;20399;-76
2023/09/19 11:56:50;;;;;;;7.07;1.63;;;20.40;95.50;;;;;;6150370;23;20002;-76
2023/09/19 11:59:30;;;;;;;9.35;1.98;;;20.50;95.70;;;;;;6123855;23;20519;-76
2023/09/19 12:02:04;;;;;;;7.07;1.60;;;20.60;95.60;;;;;;6149660;23;20084;-76
2023/09/19 12:04:37;;;;;;;8.63;1.63;;;20.70;95.70;;;;;;6149528;23;20376;-75
2023/09/19 12:07:10;;;;;;;5.90;1.85;;;20.90;95.70;;;;;;6147642;23;20013;-76
2023/09/19 12:09:39;;;;;;;9.02;1.23;;;21.00;95.50;;;;;;6148691;23;20006;-76
2023/09/19 12:12:05;;;;;;;5.40;1.52;;;21.00;95.30;;;;;;6148609;23;20056;-75
2023/09/19 12:14:31;;;;;;;6.50;1.15;;;21.00;95.10;;;;;;6149594;23;20077;-75
2023/09/19 12:17:00;;;;;;;5.97;1.65;;;20.80;94.90;;;;;;6149162;23;20016;-76
2023/09/19 12:19:26;;;;;;;5.60;1.17;;;20.70;94.80;;;;;;6149372;23;20081;-75
2023/09/19 12:21:57;;;;;;;8.32;2.63;;;20.70;94.90;;;;;;6124204;23;20039;-76
2023/09/19 12:24:27;;;;;;;5.40;1.33;;;20.60;95.10;;;;;;6125371;23;20010;-72
2023/09/19 12:26:53;;;;;;;6.13;1.20;;;20.60;94.90;;;;;;6152005;23;20067;-72
2023/09/19 12:29:22;;;;;;;7.13;1.45;;;20.60;95.00;;;;;;6150650;23;20088;-72
2023/09/19 12:31:55;;;;;;;3.13;1.15;;;20.70;95.00;;;;;;6151387;23;20002;-73
2023/09/19 12:34:27;;;;;;;3.97;1.13;;;20.80;95.00;;;;;;6150319;23;20027;-72
2023/09/19 12:37:12;;;;;;;6.47;1.25;;;20.80;94.40;;;;;;6151956;23;20013;-73
2023/09/19 12:39:53;;;;;;;3.80;0.77;;;20.80;94.00;;;;;;6151866;23;20002;-73
2023/09/19 12:42:23;;;;;;;7.03;1.25;;;20.80;93.90;;;;;;6151594;23;20002;-73
2023/09/19 12:44:56;;;;;;;4.43;1.00;;;20.80;94.00;;;;;;6151730;23;20021;-77
2023/09/19 12:47:24;;;;;;;3.17;0.82;;;20.70;94.00;;;;;;6151549;23;20335;-76
2023/09/19 12:50:07;;;;;;;6.65;1.30;;;20.70;94.00;;;;;;6125265;23;20391;-76
2023/09/19 12:52:40;;;;;;;5.22;0.90;;;20.60;94.10;;;;;;6151796;23;20132;-76
2023/09/19 12:55:07;;;;;;;;;;;20.60;94.20;;;;;;6152075;23;20078;-76
2023/09/19 12:57:36;;;;;;;5.43;1.05;;;20.60;94.20;;;;;;6149938;23;19913;-76
2023/09/19 13:00:02;;;;;;;2.17;0.82;;;20.60;94.20;;;;;;6151311;23;20032;-76
2023/09/19 13:02:28;;;;;;;5.10;0.93;;;20.60;94.10;;;;;;6151625;23;20008;-76
2023/09/19 13:04:54;;;;;;;5.68;0.85;;;20.50;94.10;;;;;;6150921;23;20072;-76
2023/09/19 13:07:49;;;;;;;6.38;1.00;;;20.50;94.20;;;;;;6151375;23;20432;-76
2023/09/19 13:10:16;;;;;;;4.50;1.65;;;20.50;94.30;;;;;;6151215;23;20457;-77
2023/09/19 13:12:46;;;;;;;3.08;0.98;;;20.50;94.30;;;;;;6122355;23;20396;-75
2023/09/19 13:15:19;;;;;;;3.40;1.02;;;20.40;94.30;;;;;;6147249;23;20001;-76